createdAt,value
2023-02-06T00:01:47.757Z,91.20
2023-02-06T00:04:14.567Z,91.13
2023-02-06T00:06:41.279Z,91.16
2023-02-06T00:09:08.049Z,90.91
2023-02-06T00:11:34.928Z,90.68
2023-02-06T00:14:01.276Z,90.84
2023-02-06T00:16:31.216Z,91.12
2023-02-06T00:18:59.215Z,91.26
2023-02-06T00:21:27.142Z,91.47
2023-02-06T00:23:55.683Z,91.84
2023-02-06T00:26:22.673Z,91.68
2023-02-06T00:28:49.069Z,91.72
2023-02-06T00:31:15.866Z,91.70
2023-02-06T00:33:42.619Z,91.79
2023-02-06T00:36:09.918Z,91.82
2023-02-06T00:38:37.352Z,91.71
2023-02-06T00:41:04.057Z,91.66
2023-02-06T00:43:30.389Z,91.88
2023-02-06T00:45:57.608Z,91.82
2023-02-06T00:48:25.548Z,91.76
2023-02-06T00:50:53.009Z,91.93
2023-02-06T00:53:19.551Z,91.89
2023-02-06T00:55:46.002Z,91.73
2023-02-06T00:58:12.343Z,91.56
2023-02-06T01:00:38.645Z,91.58
2023-02-06T01:03:05.092Z,91.82
2023-02-06T01:05:31.506Z,91.75
2023-02-06T01:07:57.831Z,91.50
2023-02-06T01:10:24.349Z,91.53
2023-02-06T01:12:50.809Z,91.81
2023-02-06T01:15:17.441Z,92.13
2023-02-06T01:17:43.874Z,92.10
2023-02-06T01:20:13.188Z,92.27
2023-02-06T01:22:40.202Z,91.93
2023-02-06T01:25:07.256Z,91.73
2023-02-06T01:27:37.039Z,91.58
2023-02-06T01:30:06.020Z,91.45
2023-02-06T01:32:32.395Z,91.42
2023-02-06T01:34:58.827Z,91.35
2023-02-06T01:37:25.237Z,91.16
2023-02-06T01:39:51.614Z,91.28
2023-02-06T01:42:18.129Z,91.44
2023-02-06T01:44:44.432Z,91.83
2023-02-06T01:47:10.775Z,91.08
2023-02-06T01:49:45.356Z,91.35
2023-02-06T01:52:23.176Z,91.24
2023-02-06T01:54:54.404Z,91.16
2023-02-06T01:57:22.226Z,91.18
2023-02-06T01:59:53.318Z,91.54
2023-02-06T02:02:21.034Z,92.04
2023-02-06T02:04:48.429Z,91.90
2023-02-06T02:07:27.732Z,92.02
2023-02-06T02:09:54.167Z,91.88
2023-02-06T02:12:20.880Z,91.80
2023-02-06T02:14:49.372Z,91.84
2023-02-06T02:17:38.494Z,91.84
2023-02-06T02:20:25.973Z,91.84
2023-02-06T02:23:07.382Z,91.85
2023-02-06T02:26:11.487Z,91.94
2023-02-06T02:29:28.817Z,91.68
2023-02-06T02:32:28.607Z,91.64
2023-02-06T02:35:22.458Z,91.18
2023-02-06T02:38:03.570Z,91.27
2023-02-06T02:40:58.355Z,91.27
2023-02-06T02:43:35.594Z,91.30
2023-02-06T02:46:17.560Z,91.21
2023-02-06T02:48:47.164Z,91.20
2023-02-06T02:51:14.543Z,91.09
2023-02-06T02:53:40.949Z,91.31
2023-02-06T02:56:22.794Z,91.68
2023-02-06T02:58:58.505Z,91.66
2023-02-06T03:01:32.703Z,91.93
2023-02-06T03:04:07.097Z,92.30
2023-02-06T03:06:57.354Z,92.30
2023-02-06T03:09:46.950Z,92.31
2023-02-06T03:12:22.580Z,92.35
2023-02-06T03:15:21.501Z,92.13
2023-02-06T03:17:55.956Z,92.04
2023-02-06T03:20:23.601Z,91.74
2023-02-06T03:22:51.983Z,91.37
2023-02-06T03:25:25.383Z,91.46
2023-02-06T03:27:54.700Z,91.42
2023-02-06T03:30:24.092Z,91.17
2023-02-06T03:32:56.490Z,91.09
2023-02-06T03:35:29.754Z,90.95
2023-02-06T03:37:56.309Z,91.08
2023-02-06T03:40:24.478Z,91.09
2023-02-06T03:42:55.952Z,91.09
2023-02-06T03:45:26.042Z,91.33
2023-02-06T03:47:55.560Z,91.33
2023-02-06T03:50:24.328Z,91.17
2023-02-06T03:52:51.557Z,91.55
2023-02-06T03:55:21.480Z,91.83
2023-02-06T03:57:52.664Z,92.31
2023-02-06T04:00:19.729Z,92.10
2023-02-06T04:02:47.605Z,91.93
2023-02-06T04:05:16.675Z,91.98
2023-02-06T04:07:43.323Z,92.00
2023-02-06T04:10:10.240Z,91.95
2023-02-06T04:12:36.710Z,92.07
2023-02-06T04:15:03.209Z,92.13
2023-02-06T04:17:46.251Z,92.01
2023-02-06T04:20:13.495Z,92.01
2023-02-06T04:22:41.253Z,92.49
2023-02-06T04:25:07.821Z,92.58
2023-02-06T04:27:34.194Z,92.11
2023-02-06T04:30:00.530Z,91.73
2023-02-06T04:32:26.849Z,91.41
2023-02-06T04:34:53.250Z,91.21
2023-02-06T04:37:19.644Z,91.00
2023-02-06T04:39:47.414Z,91.07
2023-02-06T04:42:13.802Z,91.09
2023-02-06T04:44:40.232Z,90.50
2023-02-06T04:47:06.634Z,90.60
2023-02-06T04:49:33.559Z,90.24
2023-02-06T04:52:00.010Z,90.38
2023-02-06T04:54:26.718Z,90.77
2023-02-06T04:56:53.057Z,91.25
2023-02-06T04:59:19.472Z,91.18
2023-02-06T05:01:45.870Z,91.20
2023-02-06T05:04:12.300Z,91.35
2023-02-06T05:06:38.726Z,90.90
2023-02-06T05:09:06.063Z,90.82
2023-02-06T05:11:32.555Z,91.37
2023-02-06T05:13:58.877Z,91.69
2023-02-06T05:16:26.157Z,91.56
2023-02-06T05:18:54.644Z,91.66
2023-02-06T05:21:22.208Z,91.83
2023-02-06T05:23:48.559Z,91.96
2023-02-06T05:26:14.856Z,91.81
2023-02-06T05:28:41.283Z,91.63
2023-02-06T05:31:07.985Z,90.99
2023-02-06T05:33:34.502Z,91.14
2023-02-06T05:36:06.226Z,91.42
2023-02-06T05:38:33.189Z,91.21
2023-02-06T05:41:00.039Z,91.77
2023-02-06T05:43:26.551Z,91.49
2023-02-06T05:45:52.946Z,91.61
2023-02-06T05:48:19.254Z,91.67
2023-02-06T05:50:48.797Z,91.97
2023-02-06T05:53:18.873Z,92.08
2023-02-06T05:55:45.240Z,92.32
2023-02-06T05:58:12.351Z,92.28
2023-02-06T06:00:38.951Z,92.50
2023-02-06T06:03:05.802Z,92.54
2023-02-06T06:05:32.156Z,92.31
2023-02-06T06:07:58.592Z,92.41
2023-02-06T06:10:24.945Z,92.42
2023-02-06T06:12:51.288Z,92.58
2023-02-06T06:15:17.698Z,92.55
2023-02-06T06:17:44.016Z,92.75
2023-02-06T06:20:10.902Z,92.99
2023-02-06T06:22:37.213Z,92.94
2023-02-06T06:25:04.074Z,93.19
2023-02-06T06:27:30.576Z,93.41
2023-02-06T06:29:56.871Z,93.10
2023-02-06T06:32:23.530Z,93.13
2023-02-06T06:34:49.942Z,92.94
2023-02-06T06:37:16.434Z,92.92
2023-02-06T06:39:42.807Z,92.44
2023-02-06T06:42:09.365Z,92.80
2023-02-06T06:44:35.751Z,92.86
2023-02-06T06:47:02.101Z,92.95
2023-02-06T06:49:29.166Z,92.82
2023-02-06T06:51:55.528Z,92.87
2023-02-06T06:54:22.206Z,92.91
2023-02-06T06:56:48.797Z,93.09
2023-02-06T06:59:15.428Z,93.17
2023-02-06T07:01:42.113Z,93.05
2023-02-06T07:04:08.819Z,92.98
2023-02-06T07:06:35.293Z,92.76
2023-02-06T07:09:02.028Z,92.58
2023-02-06T07:11:28.691Z,92.68
2023-02-06T07:13:55.086Z,92.90
2023-02-06T07:16:22.615Z,93.43
2023-02-06T07:18:48.978Z,93.40
2023-02-06T07:21:15.510Z,92.95
2023-02-06T07:23:42.731Z,92.95
2023-02-06T07:26:09.046Z,92.78
2023-02-06T07:28:35.404Z,93.02
2023-02-06T07:31:07.522Z,93.00
2023-02-06T07:33:34.854Z,92.95
2023-02-06T07:36:03.698Z,92.93
2023-02-06T07:38:30.627Z,93.10
2023-02-06T07:41:01.402Z,93.26
2023-02-06T07:43:27.846Z,93.01
2023-02-06T07:45:54.272Z,92.78
2023-02-06T07:48:20.567Z,92.79
2023-02-06T07:50:47.538Z,92.60
2023-02-06T07:53:13.960Z,92.36
2023-02-06T07:55:40.371Z,92.07
2023-02-06T07:58:06.876Z,91.82
2023-02-06T08:00:33.410Z,91.50
2023-02-06T08:02:59.753Z,90.17
2023-02-06T08:05:26.052Z,88.55
2023-02-06T08:07:52.838Z,87.42
2023-02-06T08:10:19.321Z,86.34
2023-02-06T08:12:45.886Z,85.76
2023-02-06T08:15:12.550Z,86.45
2023-02-06T08:17:38.930Z,86.27
2023-02-06T08:20:05.447Z,86.20
2023-02-06T08:22:31.969Z,86.80
2023-02-06T08:24:58.424Z,85.30
2023-02-06T08:27:24.830Z,84.31
2023-02-06T08:29:51.197Z,84.89
2023-02-06T08:32:17.612Z,84.59
2023-02-06T08:34:44.023Z,84.33
2023-02-06T08:37:10.647Z,84.14
2023-02-06T08:39:37.278Z,84.05
2023-02-06T08:42:04.539Z,84.00
2023-02-06T08:44:36.651Z,83.56
2023-02-06T08:47:10.116Z,83.80
2023-02-06T08:49:37.151Z,83.69
2023-02-06T08:52:03.634Z,83.18
2023-02-06T08:54:30.063Z,82.88
2023-02-06T08:56:56.402Z,82.60
2023-02-06T08:59:22.924Z,81.95
2023-02-06T09:01:49.516Z,80.26
2023-02-06T09:04:16.632Z,80.32
2023-02-06T09:06:45.115Z,79.95
2023-02-06T09:09:12.185Z,77.03
2023-02-06T09:11:38.947Z,78.02
2023-02-06T09:14:06.730Z,78.37
2023-02-06T09:16:34.010Z,76.61
2023-02-06T09:19:02.081Z,75.54
2023-02-06T09:21:30.674Z,75.97
2023-02-06T09:24:01.427Z,74.22
2023-02-06T09:26:30.369Z,73.76
2023-02-06T09:28:59.312Z,74.76
2023-02-06T09:31:27.798Z,73.41
2023-02-06T09:33:56.336Z,73.11
2023-02-06T09:36:23.245Z,72.44
2023-02-06T09:38:52.736Z,72.42
2023-02-06T09:41:31.071Z,72.52
2023-02-06T09:44:11.007Z,73.21
2023-02-06T09:46:46.240Z,74.12
2023-02-06T09:49:18.468Z,74.88
2023-02-06T09:52:01.624Z,74.97
2023-02-06T09:54:38.019Z,74.33
2023-02-06T09:57:36.781Z,75.21
2023-02-06T10:00:16.576Z,75.68
2023-02-06T10:02:59.545Z,75.80
2023-02-06T10:05:39.981Z,75.55
2023-02-06T10:08:29.265Z,74.86
2023-02-06T10:10:58.438Z,74.01
2023-02-06T10:13:40.315Z,73.95
2023-02-06T10:16:33.840Z,73.91
2023-02-06T10:19:12.894Z,73.90
2023-02-06T10:21:46.153Z,73.39
2023-02-06T10:24:43.477Z,73.34
2023-02-06T10:27:13.005Z,73.65
2023-02-06T10:29:41.491Z,73.46
2023-02-06T10:32:43.293Z,70.22
2023-02-06T10:35:35.073Z,69.43
2023-02-06T10:38:35.094Z,69.38
2023-02-06T10:41:21.615Z,70.01
2023-02-06T10:43:51.285Z,70.83
2023-02-06T10:46:53.213Z,70.47
2023-02-06T10:49:31.787Z,69.21
2023-02-06T10:52:01.915Z,68.70
2023-02-06T10:54:31.833Z,68.81
2023-02-06T10:56:59.775Z,67.65
2023-02-06T10:59:31.582Z,65.82
2023-02-06T11:02:07.355Z,65.50
2023-02-06T11:04:39.002Z,66.31
2023-02-06T11:07:17.279Z,62.28
2023-02-06T11:09:44.561Z,57.91
2023-02-06T11:12:29.979Z,57.95
2023-02-06T11:15:00.603Z,54.92
2023-02-06T11:17:26.967Z,57.15
2023-02-06T11:19:57.519Z,56.54
2023-02-06T11:22:30.627Z,57.97
2023-02-06T11:25:01.121Z,61.45
2023-02-06T11:27:27.780Z,62.15
2023-02-06T11:29:54.391Z,64.14
2023-02-06T11:32:36.549Z,63.74
2023-02-06T11:35:17.197Z,64.03
2023-02-06T11:37:43.650Z,65.06
2023-02-06T11:40:19.144Z,64.50
2023-02-06T11:42:46.558Z,63.81
2023-02-06T11:45:33.529Z,65.16
2023-02-06T11:48:01.292Z,65.67
2023-02-06T11:50:30.690Z,64.56
2023-02-06T11:53:07.413Z,62.87
2023-02-06T11:55:34.523Z,63.49
2023-02-06T11:58:27.880Z,62.30
2023-02-06T12:00:56.775Z,63.14
2023-02-06T12:03:51.789Z,63.64
2023-02-06T12:06:27.590Z,65.22
2023-02-06T12:08:56.857Z,66.32
2023-02-06T12:11:34.502Z,66.33
2023-02-06T12:14:05.523Z,65.24
2023-02-06T12:16:35.944Z,65.55
2023-02-06T12:19:05.059Z,65.76
2023-02-06T12:21:44.977Z,66.40
2023-02-06T12:24:25.862Z,66.43
2023-02-06T12:26:54.771Z,66.89
2023-02-06T12:29:28.261Z,66.67
2023-02-06T12:32:20.412Z,66.41
2023-02-06T12:35:12.530Z,65.56
2023-02-06T12:37:51.156Z,66.32
2023-02-06T12:40:38.795Z,66.67
2023-02-06T12:43:14.176Z,66.65
2023-02-06T12:45:48.840Z,67.03
2023-02-06T12:48:26.850Z,67.31
2023-02-06T12:51:10.860Z,67.31
2023-02-06T12:53:42.526Z,67.54
2023-02-06T12:56:21.896Z,67.88
2023-02-06T12:59:06.555Z,66.95
2023-02-06T13:01:40.158Z,67.02
2023-02-06T13:04:34.640Z,67.21
2023-02-06T13:07:08.692Z,66.95
2023-02-06T13:09:40.975Z,67.29
2023-02-06T13:12:22.803Z,67.04
2023-02-06T13:14:52.724Z,67.83
2023-02-06T13:17:31.952Z,68.71
2023-02-06T13:20:14.657Z,67.64
2023-02-06T13:22:52.848Z,66.85
2023-02-06T13:25:31.338Z,67.21
2023-02-06T13:28:00.633Z,67.61
2023-02-06T13:30:30.149Z,67.56
2023-02-06T13:33:14.795Z,67.01
2023-02-06T13:35:56.322Z,65.23
2023-02-06T13:38:22.694Z,66.52
2023-02-06T13:41:14.703Z,67.95
2023-02-06T13:44:03.558Z,67.63
2023-02-06T13:47:12.840Z,68.94
2023-02-06T13:50:01.064Z,69.13
2023-02-06T13:52:55.381Z,69.00
2023-02-06T13:55:53.480Z,69.40
2023-02-06T13:58:38.374Z,69.58
2023-02-06T14:01:12.210Z,70.14
2023-02-06T14:03:44.308Z,70.02
2023-02-06T14:06:10.979Z,70.13
2023-02-06T14:09:02.849Z,69.92
2023-02-06T14:11:48.819Z,70.11
2023-02-06T14:14:39.883Z,70.49
2023-02-06T14:17:06.124Z,69.89
2023-02-06T14:19:51.888Z,70.08
2023-02-06T14:22:50.762Z,69.35
2023-02-06T14:25:40.174Z,67.15
2023-02-06T14:28:16.743Z,68.78
2023-02-06T14:31:05.827Z,70.25
2023-02-06T14:33:54.323Z,70.80
2023-02-06T14:36:55.398Z,68.73
2023-02-06T14:39:40.372Z,69.34
2023-02-06T14:42:13.038Z,68.96
2023-02-06T14:44:41.889Z,66.49
2023-02-06T14:47:20.395Z,66.76
2023-02-06T14:49:48.974Z,68.09
2023-02-06T14:52:25.491Z,68.89
2023-02-06T14:54:52.698Z,68.23
2023-02-06T14:57:28.099Z,69.59
2023-02-06T14:59:56.787Z,67.56
2023-02-06T15:02:33.122Z,69.09
2023-02-06T15:05:00.581Z,66.36
2023-02-06T15:07:33.564Z,67.19
2023-02-06T15:10:08.330Z,68.46
2023-02-06T15:12:36.041Z,70.00
2023-02-06T15:15:24.222Z,70.28
2023-02-06T15:18:00.703Z,71.05
2023-02-06T15:20:29.059Z,70.92
2023-02-06T15:23:11.721Z,70.01
2023-02-06T15:26:04.588Z,71.45
2023-02-06T15:28:36.242Z,72.47
2023-02-06T15:31:03.674Z,70.02
2023-02-06T15:33:34.472Z,71.09
2023-02-06T15:36:03.278Z,69.68
2023-02-06T15:38:32.339Z,69.71
2023-02-06T15:41:07.094Z,71.02
2023-02-06T15:43:34.483Z,70.32
2023-02-06T15:46:04.359Z,70.77
2023-02-06T15:48:36.091Z,69.63
2023-02-06T15:51:27.042Z,68.47
2023-02-06T15:54:27.109Z,69.37
2023-02-06T15:57:07.870Z,70.63
2023-02-06T15:59:39.396Z,71.93
2023-02-06T16:02:07.014Z,71.94
2023-02-06T16:04:38.940Z,71.65
2023-02-06T16:07:13.994Z,70.84
2023-02-06T16:09:51.263Z,70.97
2023-02-06T16:12:18.072Z,72.00
2023-02-06T16:14:57.113Z,72.13
2023-02-06T16:17:37.596Z,72.60
2023-02-06T16:20:24.007Z,73.00
2023-02-06T16:22:50.726Z,73.17
2023-02-06T16:25:29.779Z,72.39
2023-02-06T16:27:57.048Z,71.18
2023-02-06T16:30:30.121Z,70.17
2023-02-06T16:32:59.064Z,71.06
2023-02-06T16:35:25.647Z,71.82
2023-02-06T16:37:54.370Z,70.85
2023-02-06T16:40:20.922Z,70.93
2023-02-06T16:42:47.843Z,69.56
2023-02-06T16:45:20.276Z,67.23
2023-02-06T16:47:46.909Z,68.20
2023-02-06T16:50:13.401Z,69.91
2023-02-06T16:52:45.894Z,69.99
2023-02-06T16:55:18.241Z,69.19
2023-02-06T16:57:45.899Z,69.35
2023-02-06T17:00:21.646Z,70.36
2023-02-06T17:02:48.986Z,71.37
2023-02-06T17:05:17.904Z,69.63
2023-02-06T17:07:45.203Z,69.64
2023-02-06T17:10:16.543Z,68.84
2023-02-06T17:12:43.442Z,69.23
2023-02-06T17:15:12.244Z,70.70
2023-02-06T17:17:38.932Z,70.25
2023-02-06T17:20:06.858Z,69.68
2023-02-06T17:22:33.248Z,69.06
2023-02-06T17:24:59.700Z,69.63
2023-02-06T17:27:26.106Z,69.77
2023-02-06T17:29:52.505Z,71.01
2023-02-06T17:32:18.917Z,71.80
2023-02-06T17:34:45.344Z,71.95
2023-02-06T17:37:13.421Z,71.03
2023-02-06T17:39:39.978Z,71.64
2023-02-06T17:42:06.521Z,72.73
2023-02-06T17:44:32.854Z,71.96
2023-02-06T17:46:59.373Z,70.96
2023-02-06T17:49:25.810Z,72.24
2023-02-06T17:51:52.281Z,73.23
2023-02-06T17:54:18.610Z,73.85
2023-02-06T17:56:45.219Z,73.34
2023-02-06T17:59:11.672Z,72.26
2023-02-06T18:01:38.065Z,72.83
2023-02-06T18:04:04.815Z,72.93
2023-02-06T18:06:33.212Z,72.43
2023-02-06T18:08:59.767Z,71.61
2023-02-06T18:11:26.173Z,71.66
2023-02-06T18:13:52.627Z,72.43
2023-02-06T18:16:22.635Z,71.16
2023-02-06T18:18:49.702Z,72.05
2023-02-06T18:21:17.524Z,71.39
2023-02-06T18:23:43.825Z,71.31
2023-02-06T18:26:10.705Z,71.00
2023-02-06T18:28:38.566Z,71.45
2023-02-06T18:31:06.118Z,71.80
2023-02-06T18:33:34.137Z,71.46
2023-02-06T18:36:05.202Z,70.58
2023-02-06T18:38:32.072Z,71.54
2023-02-06T18:41:06.086Z,71.09
2023-02-06T18:43:33.175Z,70.72
2023-02-06T18:46:06.495Z,70.03
2023-02-06T18:48:32.879Z,70.77
2023-02-06T18:50:59.422Z,71.39
2023-02-06T18:53:25.741Z,71.87
2023-02-06T18:55:59.139Z,71.88
2023-02-06T18:58:25.577Z,71.23
2023-02-06T19:00:52.051Z,72.25
2023-02-06T19:03:18.517Z,72.32
2023-02-06T19:05:44.998Z,71.92
2023-02-06T19:08:11.419Z,72.19
2023-02-06T19:10:39.931Z,71.30
2023-02-06T19:13:06.498Z,68.31
2023-02-06T19:15:32.952Z,70.43
2023-02-06T19:17:59.340Z,70.71
2023-02-06T19:20:25.818Z,70.80
2023-02-06T19:22:52.226Z,72.37
2023-02-06T19:25:18.804Z,72.54
2023-02-06T19:27:47.039Z,72.88
2023-02-06T19:30:13.832Z,69.59
2023-02-06T19:32:40.344Z,70.14
2023-02-06T19:35:07.084Z,71.14
2023-02-06T19:37:33.566Z,69.83
2023-02-06T19:39:59.973Z,71.01
2023-02-06T19:42:26.772Z,70.74
2023-02-06T19:44:54.201Z,70.38
2023-02-06T19:47:21.566Z,70.92
2023-02-06T19:49:51.876Z,71.92
2023-02-06T19:52:18.951Z,72.62
2023-02-06T19:54:45.548Z,72.36
2023-02-06T19:57:12.072Z,72.23
2023-02-06T19:59:38.416Z,72.45
2023-02-06T20:02:05.093Z,71.72
2023-02-06T20:04:34.424Z,72.66
2023-02-06T20:07:01.217Z,73.07
2023-02-06T20:09:28.169Z,72.39
2023-02-06T20:11:55.388Z,72.92
2023-02-06T20:14:22.601Z,73.16
2023-02-06T20:16:49.150Z,72.41
2023-02-06T20:19:24.388Z,71.97
2023-02-06T20:21:54.504Z,72.75
2023-02-06T20:24:24.495Z,73.30
2023-02-06T20:26:55.988Z,73.91
2023-02-06T20:29:29.028Z,72.31
2023-02-06T20:31:56.631Z,72.15
2023-02-06T20:34:24.289Z,72.58
2023-02-06T20:36:51.783Z,73.34
2023-02-06T20:39:19.090Z,73.37
2023-02-06T20:41:46.146Z,73.76
2023-02-06T20:44:13.678Z,73.68
2023-02-06T20:46:41.494Z,73.77
2023-02-06T20:49:13.899Z,74.70
2023-02-06T20:51:40.360Z,74.16
2023-02-06T20:54:07.186Z,73.95
2023-02-06T20:56:34.120Z,74.97
2023-02-06T20:59:01.093Z,75.16
2023-02-06T21:01:29.732Z,74.54
2023-02-06T21:03:59.511Z,74.35
2023-02-06T21:06:26.862Z,75.56
2023-02-06T21:08:53.290Z,76.56
2023-02-06T21:11:20.282Z,75.65
2023-02-06T21:13:46.626Z,76.90
2023-02-06T21:16:13.753Z,77.40
2023-02-06T21:18:40.407Z,77.98
2023-02-06T21:21:10.377Z,78.62
2023-02-06T21:23:38.333Z,77.53
2023-02-06T21:26:05.612Z,76.16
2023-02-06T21:28:33.599Z,76.83
2023-02-06T21:31:03.178Z,76.27
2023-02-06T21:33:30.009Z,75.09
2023-02-06T21:35:56.864Z,76.21
2023-02-06T21:38:24.714Z,76.69
2023-02-06T21:40:51.172Z,75.26
2023-02-06T21:43:17.994Z,74.19
2023-02-06T21:45:47.473Z,75.89
2023-02-06T21:48:13.953Z,75.82
2023-02-06T21:50:41.646Z,73.73
2023-02-06T21:53:08.458Z,74.35
2023-02-06T21:55:35.447Z,75.64
2023-02-06T21:58:01.912Z,75.16
2023-02-06T22:00:28.799Z,75.53
2023-02-06T22:02:55.297Z,73.28
2023-02-06T22:05:21.733Z,73.67
2023-02-06T22:07:48.116Z,73.79
2023-02-06T22:10:14.668Z,74.26
2023-02-06T22:12:41.059Z,74.28
2023-02-06T22:15:08.346Z,74.88
2023-02-06T22:17:34.652Z,72.90
2023-02-06T22:20:01.022Z,73.20
2023-02-06T22:22:27.721Z,74.02
2023-02-06T22:24:54.079Z,74.43
2023-02-06T22:27:20.515Z,73.05
2023-02-06T22:29:46.840Z,74.14
2023-02-06T22:32:13.488Z,75.69
2023-02-06T22:34:40.290Z,75.63
2023-02-06T22:37:06.750Z,75.88
2023-02-06T22:39:33.248Z,73.84
2023-02-06T22:41:59.921Z,71.97
2023-02-06T22:44:26.308Z,72.22
2023-02-06T22:46:53.399Z,72.82
2023-02-06T22:49:21.168Z,72.77
2023-02-06T22:51:47.482Z,73.58
2023-02-06T22:54:14.302Z,74.41
2023-02-06T22:56:41.285Z,73.89
2023-02-06T22:59:12.827Z,73.24
2023-02-06T23:01:42.130Z,73.16
2023-02-06T23:04:13.132Z,73.29
2023-02-06T23:06:40.147Z,73.55
2023-02-06T23:09:08.210Z,73.92
2023-02-06T23:11:35.565Z,74.97
2023-02-06T23:14:04.258Z,74.77
2023-02-06T23:16:32.292Z,74.06
2023-02-06T23:19:00.663Z,74.23
2023-02-06T23:21:27.174Z,75.10
2023-02-06T23:23:55.582Z,73.16
2023-02-06T23:26:22.855Z,73.78
2023-02-06T23:28:49.266Z,74.94
2023-02-06T23:31:16.291Z,74.89
2023-02-06T23:33:43.242Z,74.02
2023-02-06T23:36:12.929Z,75.06
2023-02-06T23:38:40.086Z,73.74
2023-02-06T23:41:09.377Z,72.68
2023-02-06T23:43:37.005Z,73.79
2023-02-06T23:46:04.852Z,75.48
2023-02-06T23:48:32.331Z,75.65
2023-02-06T23:50:58.729Z,74.40
2023-02-06T23:53:25.172Z,74.08
2023-02-06T23:55:51.921Z,75.18
2023-02-06T23:58:18.455Z,75.53
